»·PEaware :: PSV1 KLAS-KSAN

PSV1 :: KLAS-KSAN

FLIGHT INFORMATION

Flight Status: Arrived
Operator:
Power Set Virtual (website)
More flights by this operator :: More flights under this callsign
Pilot: Max W. (2591)
Aircraft: AIRBUS A321
(A321)
More flights by this aircraft type
Origin: KLAS McCarran Intl
United States
Destination: KSAN San Diego Intl-Lindbergh
United States
More flights between these airports :: More routes between these airports
Route: BOACH8 LVELL LUCKI1
File this flight plan on PilotEdge
Remarks: NEW ATP STILL A STUDENT PILOT AT HEART THO...
Altitude:
(Current/Filed)
28,000ft
Speed:
(Current/Filed)
450kts
Departed: 30-Apr-20 03:38 PM
Arrived: 30-Apr-20 04:25 PM
Distance/Time
Traveled:
225nm/0:47
Distance/Time
To Go:
Arrived

Flight Plot

Page will automatically refresh every two minutes.

Flight plan parsing failed; only flown route is shown


Map Options




Map Legend


Flown Route
Filed Route
Departure Airport
Arrival Airport
Navaid (VOR, NDB)
Fix

Horizontal Profiles

Position Reports

Time Latitude Longitude Heading Altitude Ground
Speed
30-Apr-20 15:13 36.080056 -115.134914 319 2120ft 0kts
30-Apr-20 15:14 36.080056 -115.134914 319 2120ft 0kts
30-Apr-20 15:15 36.080056 -115.134914 319 2120ft 0kts
30-Apr-20 15:16 36.080056 -115.134914 319 2120ft 0kts
30-Apr-20 15:17 36.080056 -115.134914 319 2120ft 0kts
30-Apr-20 15:18 36.080056 -115.134914 319 2120ft 0kts
30-Apr-20 15:19 36.080056 -115.134914 319 2120ft 0kts
30-Apr-20 15:20 36.080056 -115.134914 319 2120ft 0kts
30-Apr-20 15:22 36.080056 -115.134914 319 2120ft 0kts
30-Apr-20 15:23 36.080056 -115.134914 319 2120ft 0kts
30-Apr-20 15:24 36.080056 -115.134914 319 2120ft 0kts
30-Apr-20 15:25 36.080056 -115.134914 319 2120ft 0kts
30-Apr-20 15:26 36.079813 -115.134455 284 2120ft 2kts
30-Apr-20 15:27 36.079874 -115.133751 241 2120ft 1kts
30-Apr-20 15:28 36.079880 -115.133738 240 2120ft 0kts
30-Apr-20 15:29 36.079866 -115.133769 240 2120ft 0kts
30-Apr-20 15:30 36.079561 -115.133876 160 2120ft 0kts
30-Apr-20 15:31 36.079526 -115.133863 163 2120ft 0kts
30-Apr-20 15:32 36.079461 -115.133839 163 2120ft 0kts
30-Apr-20 15:33 36.079301 -115.133811 177 2120ft 6kts
30-Apr-20 15:34 36.078275 -115.132411 88 2120ft 9kts
30-Apr-20 15:35 36.078284 -115.128324 90 2120ft 13kts
30-Apr-20 15:36 36.078126 -115.122627 115 2120ft 17kts
30-Apr-20 15:36 36.076437 -115.122350 268 2120ft 6kts
30-Apr-20 15:38 36.076783 -115.167495 267 3224ft 167kts
30-Apr-20 15:39 36.076494 -115.229629 265 4531ft 203kts
30-Apr-20 15:39 36.047157 -115.266993 200 5202ft 240kts
30-Apr-20 15:40 35.978318 -115.298076 195 7087ft 273kts
30-Apr-20 15:42 35.891827 -115.311332 186 9812ft 283kts
30-Apr-20 15:42 35.822176 -115.311450 177 10896ft 323kts
30-Apr-20 15:43 35.730932 -115.300890 178 13112ft 335kts
30-Apr-20 15:44 35.637195 -115.296356 185 15273ft 342kts
30-Apr-20 15:45 35.541492 -115.300287 185 17291ft 350kts
30-Apr-20 15:46 35.442963 -115.304132 185 19192ft 358kts
30-Apr-20 15:47 35.342346 -115.308091 185 20962ft 366kts
30-Apr-20 15:48 35.239460 -115.312146 186 22608ft 374kts
30-Apr-20 15:49 35.134721 -115.316281 186 24136ft 381kts
30-Apr-20 15:50 35.028279 -115.320448 186 25606ft 386kts
30-Apr-20 15:51 34.920499 -115.324683 186 26906ft 392kts
30-Apr-20 15:52 34.811739 -115.329817 190 27413ft 413kts
30-Apr-20 15:53 34.700894 -115.365695 203 27886ft 412kts
30-Apr-20 15:54 34.594312 -115.412570 203 27904ft 407kts
30-Apr-20 15:55 34.488267 -115.458955 203 27905ft 407kts
30-Apr-20 15:56 34.381938 -115.505285 203 27905ft 406kts
30-Apr-20 15:57 34.280665 -115.563048 213 27906ft 402kts
30-Apr-20 15:58 34.182369 -115.627344 206 27901ft 405kts
30-Apr-20 15:59 34.079802 -115.676711 204 27875ft 405kts
30-Apr-20 16:00 33.975084 -115.726271 204 27854ft 406kts
30-Apr-20 16:01 33.872898 -115.775135 205 27846ft 405kts
30-Apr-20 16:02 33.768369 -115.826345 205 27850ft 406kts
30-Apr-20 16:03 33.662997 -115.875667 204 27304ft 404kts
30-Apr-20 16:04 33.558989 -115.924253 204 24666ft 407kts
30-Apr-20 16:05 33.477899 -116.008049 234 22728ft 380kts
30-Apr-20 16:06 33.419727 -116.108960 235 21069ft 359kts
30-Apr-20 16:07 33.363979 -116.204877 235 19463ft 341kts
30-Apr-20 16:08 33.294499 -116.275778 208 17942ft 329kts
30-Apr-20 16:09 33.213605 -116.322900 208 16452ft 319kts
30-Apr-20 16:10 33.134900 -116.368905 207 15016ft 310kts
30-Apr-20 16:11 33.061480 -116.411774 207 13693ft 303kts
30-Apr-20 16:12 32.989547 -116.460543 220 12395ft 295kts
30-Apr-20 16:13 32.927370 -116.523345 221 11065ft 291kts
30-Apr-20 16:14 32.867692 -116.583351 221 9982ft 281kts
30-Apr-20 16:15 32.809107 -116.642216 221 8979ft 274kts
30-Apr-20 16:16 32.761881 -116.702784 240 7814ft 269kts
30-Apr-20 16:17 32.726408 -116.778270 241 6608ft 242kts
30-Apr-20 16:18 32.698236 -116.847622 250 5941ft 231kts
30-Apr-20 16:19 32.676291 -116.920401 251 5172ft 240kts
30-Apr-20 16:20 32.685869 -116.994485 286 3407ft 225kts
30-Apr-20 16:21 32.702534 -117.062234 285 2341ft 197kts
30-Apr-20 16:22 32.716524 -117.119726 285 1259ft 164kts
30-Apr-20 16:23 32.728138 -117.167624 286 285ft 148kts
30-Apr-20 16:24 32.736081 -117.201279 256 20ft 27kts
30-Apr-20 16:25 32.734678 -117.203183 230 19ft 14kts
30-Apr-20 16:26 32.734530 -117.203398 231 19ft 0kts
30-Apr-20 16:27 32.734530 -117.203398 231 19ft 0kts

Navigation Log

Ident Type
Flight plan parsing failed, navigation log unavailable